Time;durP1;ratioP1;P1;durP2;ratioP2;P2;SDS_P1;SDS_P2;PMS_P1;PMS_P2;Temp;Humidity;BMP_temperature;BMP_pressure;BME280_temperature;BME280_humidity;BME280_pressure;Samples;Min_cycle;Max_cycle;Signal;HPM_P1;HPM_P2
2022/11/26 00:02:22;;;;;;;1.52;1.50;;;;;;;2.99;92.70;99984.34;4304169;33;34718;-81
2022/11/26 00:04:52;;;;;;;2.05;1.70;;;;;;;2.45;93.51;99993.84;4304082;33;35800;-72
2022/11/26 00:07:24;;;;;;;1.23;0.98;;;;;;;2.74;93.62;99993.87;4291051;33;34445;-82
2022/11/26 00:09:54;;;;;;;3.08;2.87;;;;;;;2.69;93.02;100002.28;4291341;33;34004;-81
2022/11/26 00:12:27;;;;;;;1.08;1.08;;;;;;;2.11;95.64;100001.25;4290887;33;33816;-82
2022/11/26 00:14:55;;;;;;;1.73;1.62;;;;;;;2.98;92.78;100009.19;4303960;33;35068;-81
2022/11/26 00:17:23;;;;;;;1.52;1.42;;;;;;;2.65;92.91;100006.44;4303896;33;34422;-80
2022/11/26 00:19:51;;;;;;;1.85;1.75;;;;;;;3.17;91.68;100013.19;4303929;33;33577;-78
2022/11/26 00:22:30;;;;;;;2.35;2.17;;;;;;;3.29;90.13;100010.09;4303936;33;33951;-81
2022/11/26 00:24:58;;;;;;;2.92;2.70;;;;;;;3.28;90.52;100007.47;4303695;33;35992;-81
2022/11/26 00:27:27;;;;;;;15.52;13.50;;;;;;;3.67;87.90;100004.28;4303962;33;35275;-81
2022/11/26 00:29:55;;;;;;;1.62;1.52;;;;;;;3.33;88.51;100003.34;4290658;33;34410;-71
2022/11/26 00:32:24;;;;;;;6.85;3.58;;;;;;;3.13;90.55;100005.34;4290735;33;34023;-82
2022/11/26 00:34:52;;;;;;;1.52;1.42;;;;;;;2.58;92.75;100005.38;4303422;33;34930;-71
2022/11/26 00:37:38;;;;;;;2.55;2.35;;;;;;;2.74;93.76;100004.16;4303975;33;35101;-82
2022/11/26 00:40:15;;;;;;;2.95;2.67;;;;;;;2.86;92.78;100006.25;4304499;33;33200;-81
2022/11/26 00:42:43;;;;;;;0.98;0.98;;;;;;;3.05;90.65;100015.38;4303781;33;33985;-80
2022/11/26 00:45:18;;;;;;;9.50;4.12;;;;;;;3.56;89.00;100012.59;4291947;33;35478;-81
2022/11/26 00:47:46;;;;;;;3.35;3.05;;;;;;;3.36;90.39;100003.44;4290075;33;34419;-71
2022/11/26 00:50:19;;;;;;;5.03;4.45;;;;;;;3.78;87.57;100013.22;4291023;33;34357;-71
2022/11/26 00:52:49;;;;;;;3.30;3.03;;;;;;;3.68;88.17;100012.06;4291141;33;34549;-82
2022/11/26 00:55:23;;;;;;;1.17;1.08;;;;;;;3.87;87.12;100013.47;4293448;33;35933;-76
2022/11/26 00:57:51;;;;;;;1.25;1.23;;;;;;;3.60;88.73;100019.59;4291100;33;34543;-72
2022/11/26 01:00:23;;;;;;;0.90;0.90;;;;;;;3.15;90.86;100014.84;4291039;33;33466;-81
2022/11/26 01:02:51;;;;;;;2.08;1.98;;;;;;;2.85;92.47;100019.94;4304158;33;34027;-72
2022/11/26 01:05:21;;;;;;;4.78;3.12;;;;;;;2.79;92.87;100018.03;4304255;33;35017;-82
2022/11/26 01:07:51;;;;;;;10.75;3.62;;;;;;;2.97;93.14;100024.59;4305723;33;35173;-81
2022/11/26 01:10:25;;;;;;;2.08;1.95;;;;;;;3.35;91.78;100022.28;4292412;33;33454;-81
2022/11/26 01:12:55;;;;;;;1.42;1.35;;;;;;;3.57;90.02;100022.06;4292556;33;34717;-81
2022/11/26 01:15:24;;;;;;;12.80;6.18;;;;;;;3.67;88.50;100020.66;4292636;33;35949;-81
2022/11/26 01:17:52;;;;;;;2.97;2.70;;;;;;;3.16;91.21;100032.03;4305295;33;35362;-74
2022/11/26 01:20:29;;;;;;;2.70;2.50;;;;;;;3.47;90.96;100020.06;4304397;33;33223;-82
2022/11/26 01:22:57;;;;;;;1.33;1.27;;;;;;;3.95;88.04;100017.13;4305391;33;33935;-78
2022/11/26 01:25:26;;;;;;;1.52;1.42;;;;;;;4.46;84.69;100025.28;4292429;33;35105;-72
2022/11/26 01:27:54;;;;;;;2.33;1.92;;;;;;;4.37;85.37;100021.62;4305540;33;34600;-81
2022/11/26 01:30:25;;;;;;;3.08;2.78;;;;;;;4.04;87.12;100025.91;4305337;33;33791;-82
2022/11/26 01:32:53;;;;;;;3.25;1.87;;;;;;;4.45;84.97;100023.53;4304122;33;33893;-81
2022/11/26 01:35:21;;;;;;;8.75;4.18;;;;;;;4.69;82.84;100024.13;4305079;33;35034;-81
2022/11/26 01:37:49;;;;;;;3.55;3.28;;;;;;;4.70;81.74;100025.88;4303804;33;34579;-77
2022/11/26 01:40:52;;;;;;;1.77;1.67;;;;;;;3.77;87.03;100020.03;4305191;33;33445;-71
2022/11/26 01:43:36;;;;;;;2.17;2.08;;;;;;;3.85;87.18;100024.53;4305481;33;34617;-81
2022/11/26 01:46:13;;;;;;;8.10;5.72;;;;;;;3.92;86.68;100022.19;4304146;33;35953;-82
2022/11/26 01:48:41;;;;;;;0.88;0.88;;;;;;;4.74;82.79;100019.06;4303460;33;34902;-82
2022/11/26 01:51:11;;;;;;;4.25;3.85;;;;;;;4.83;82.12;100019.28;4304974;33;33505;-80
2022/11/26 01:54:14;;;;;;;2.62;2.53;;;;;;;4.36;83.53;100013.87;4305178;33;34674;-81
2022/11/26 01:56:45;;;;;;;4.75;4.30;;;;;;;3.61;88.00;100020.47;4288476;33;35154;-82
2022/11/26 01:59:27;;;;;;;1.52;1.42;;;;;;;4.20;86.73;100019.44;4301468;33;35117;-82
2022/11/26 02:01:57;;;;;;;2.97;2.78;;;;;;;3.74;87.57;100016.50;4305275;33;33473;-73
2022/11/26 02:04:32;;;;;;;4.15;1.45;;;;;;;3.23;90.90;100022.81;4304998;33;34769;-72
2022/11/26 02:07:00;;;;;;;1.80;1.70;;;;;;;3.95;89.11;100022.28;4292384;33;35967;-85
2022/11/26 02:09:29;;;;;;;3.67;3.33;;;;;;;4.12;85.89;100014.97;4282259;33;35250;-81
2022/11/26 02:11:56;;;;;;;2.78;2.58;;;;;;;4.07;86.40;100023.41;4277648;33;33428;-72
2022/11/26 02:14:27;;;;;;;4.78;1.70;;;;;;;4.19;86.07;100026.31;4289470;33;34300;-82
2022/11/26 02:17:15;;;;;;;1.62;1.52;;;;;;;4.15;86.04;100029.66;4290566;33;35148;-80
2022/11/26 02:19:49;;;;;;;1.73;1.62;;;;;;;4.30;85.66;100026.59;4290488;33;34766;-78
2022/11/26 02:22:26;;;;;;;1.27;1.17;;;;;;;4.07;86.53;100026.87;4290823;33;34543;-81
2022/11/26 02:25:06;;;;;;;1.80;1.70;;;;;;;3.51;90.26;100029.63;4290433;33;33889;-83
2022/11/26 02:27:34;;;;;;;5.37;3.37;;;;;;;3.43;91.51;100025.97;4290716;33;35062;-82
2022/11/26 02:30:11;;;;;;;0.85;0.85;;;;;;;3.31;92.89;100030.75;4290422;33;34407;-82
2022/11/26 02:33:02;;;;;;;2.83;2.67;;;;;;;3.39;93.13;100029.28;4299682;33;34337;-82
2022/11/26 02:35:47;;;;;;;3.17;2.87;;;;;;;3.54;91.80;100029.69;4303694;33;33946;-83
2022/11/26 02:38:19;;;;;;;4.28;3.97;;;;;;;3.65;91.53;100036.87;4303670;33;35041;-75
2022/11/26 02:40:47;;;;;;;5.68;2.35;;;;;;;4.00;89.33;100035.25;4303815;33;35229;-82
2022/11/26 02:43:16;;;;;;;1.80;1.70;;;;;;;4.13;88.62;100042.50;4304613;33;34211;-77
2022/11/26 02:45:50;;;;;;;4.18;2.92;;;;;;;4.96;83.70;100033.37;4304664;33;34790;-72
2022/11/26 02:48:25;;;;;;;1.55;1.45;;;;;;;5.25;81.18;100040.87;4304130;33;36039;-82
2022/11/26 02:50:57;;;;;;;1.08;1.05;;;;;;;5.26;80.03;100034.91;4290791;33;34629;-72
2022/11/26 02:53:27;;;;;;;2.12;1.75;;;;;;;4.18;84.72;100048.66;4302247;33;33390;-72
2022/11/26 02:56:01;;;;;;;2.55;2.37;;;;;;;3.78;87.41;100050.13;4303967;33;34133;-73
2022/11/26 02:58:30;;;;;;;0.90;0.90;;;;;;;3.91;87.22;100059.06;4291037;33;34994;-73
2022/11/26 03:01:01;;;;;;;13.75;6.90;;;;;;;3.60;88.07;100055.66;4302700;33;34698;-82
2022/11/26 03:03:37;;;;;;;1.75;1.65;;;;;;;3.72;87.42;100059.38;4291819;33;33385;-83
2022/11/26 03:06:07;;;;;;;3.55;2.33;;;;;;;4.43;83.80;100066.44;4303676;33;34012;-82
2022/11/26 03:08:36;;;;;;;4.82;4.35;;;;;;;4.20;84.82;100059.00;4291900;33;35067;-83
2022/11/26 03:11:04;;;;;;;0.62;0.62;;;;;;;4.15;85.30;100065.75;4304908;33;35200;-82
2022/11/26 03:13:32;;;;;;;1.20;1.20;;;;;;;4.05;85.88;100063.75;4304703;33;34450;-83
2022/11/26 03:16:00;;;;;;;1.40;1.35;;;;;;;4.05;88.14;100069.75;4291651;33;33926;-82
2022/11/26 03:18:29;;;;;;;2.45;2.12;;;;;;;4.12;86.21;100061.37;4304950;33;35703;-81
2022/11/26 03:20:57;;;;;;;3.40;3.12;;;;;;;3.86;88.36;100068.38;4304537;33;34459;-79
2022/11/26 03:23:25;;;;;;;0.70;0.70;;;;;;;3.63;89.78;100077.16;4304603;33;33225;-80
2022/11/26 03:25:53;;;;;;;8.93;5.12;;;;;;;3.40;91.63;100074.78;4304461;33;33977;-71
2022/11/26 03:28:20;;;;;;;2.00;1.90;;;;;;;3.50;91.35;100079.38;4304555;33;35043;-81
2022/11/26 03:30:50;;;;;;;3.90;3.60;;;;;;;3.38;92.29;100074.72;4304446;33;35169;-81
2022/11/26 03:33:18;;;;;;;1.80;1.70;;;;;;;3.56;91.24;100082.13;4304601;33;34321;-71
2022/11/26 03:35:47;;;;;;;2.40;2.20;;;;;;;3.70;91.44;100087.66;4304318;33;33959;-81
2022/11/26 03:38:16;;;;;;;1.37;1.27;;;;;;;3.73;90.53;100086.91;4304435;33;34931;-81
2022/11/26 03:40:44;;;;;;;3.60;1.98;;;;;;;4.90;84.82;100084.81;4304367;33;34024;-80
2022/11/26 03:43:12;;;;;;;3.65;1.67;;;;;;;4.20;86.14;100092.53;4304378;33;34313;-81
2022/11/26 03:45:40;;;;;;;2.00;1.90;;;;;;;4.20;87.88;100089.94;4304358;33;33809;-81
2022/11/26 03:48:08;;;;;;;3.92;2.62;;;;;;;4.63;85.46;100090.19;4304304;33;35002;-77
2022/11/26 03:50:36;;;;;;;1.83;1.73;;;;;;;4.20;86.48;100089.94;4304371;33;34551;-81
2022/11/26 03:53:04;;;;;;;2.33;2.17;;;;;;;4.03;87.31;100091.19;4304291;33;34428;-81
2022/11/26 03:55:32;;;;;;;4.65;3.72;;;;;;;3.56;90.51;100100.12;4304231;33;33909;-81
2022/11/26 03:58:00;;;;;;;10.85;8.95;;;;;;;4.24;87.44;100101.22;4304135;33;35510;-80
2022/11/26 04:00:28;;;;;;;2.37;2.25;;;;;;;4.27;87.83;100103.84;4304081;33;34638;-80
2022/11/26 04:02:57;;;;;;;0.80;0.80;;;;;;;5.04;82.65;100098.06;4304227;33;33735;-81
2022/11/26 04:05:25;;;;;;;1.65;1.55;;;;;;;4.47;85.88;100099.25;4304005;33;33949;-76
2022/11/26 04:07:53;;;;;;;3.85;3.58;;;;;;;4.30;85.84;100097.06;4304041;33;35100;-81
2022/11/26 04:10:22;;;;;;;1.58;1.48;;;;;;;4.42;86.87;100099.09;4303970;33;34481;-80
2022/11/26 04:12:50;;;;;;;4.85;3.03;;;;;;;3.95;87.59;100107.31;4303551;33;34479;-81
2022/11/26 04:15:18;;;;;;;4.25;3.95;;;;;;;3.69;90.94;100110.81;4305788;33;33921;-71
2022/11/26 04:17:46;;;;;;;22.30;5.65;;;;;;;3.83;89.48;100104.38;4305833;33;35042;-76
2022/11/26 04:20:14;;;;;;;1.55;1.45;;;;;;;3.46;91.15;100108.44;4305771;33;34551;-81
2022/11/26 04:22:42;;;;;;;2.60;2.50;;;;;;;3.91;90.28;100108.03;4305790;33;33489;-81
2022/11/26 04:25:10;;;;;;;1.08;1.08;;;;;;;3.91;89.87;100097.72;4305675;33;33908;-81
2022/11/26 04:27:38;;;;;;;2.33;2.00;;;;;;;3.39;92.80;100109.09;4305626;33;35144;-71
2022/11/26 04:30:07;;;;;;;5.25;4.85;;;;;;;3.85;91.41;100112.13;4305738;33;35324;-82
2022/11/26 04:32:38;;;;;;;1.70;1.60;;;;;;;4.04;89.30;100110.94;4305787;33;33751;-75
2022/11/26 04:35:07;;;;;;;2.45;2.25;;;;;;;4.25;88.03;100115.81;4305699;33;34790;-81
2022/11/26 04:37:35;;;;;;;3.97;2.72;;;;;;;4.17;87.94;100124.22;4292544;33;35997;-81
2022/11/26 04:40:04;;;;;;;2.42;2.00;;;;;;;4.76;84.95;100128.34;4305559;33;35412;-81
2022/11/26 04:42:32;;;;;;;2.08;1.98;;;;;;;4.63;84.47;100132.31;4305723;33;33362;-81
2022/11/26 04:45:00;;;;;;;1.15;1.15;;;;;;;4.60;84.69;100131.38;4305419;33;33894;-81
2022/11/26 04:47:28;;;;;;;1.77;1.67;;;;;;;4.85;84.15;100136.34;4304516;33;35162;-72
2022/11/26 04:49:56;;;;;;;2.33;2.20;;;;;;;4.44;85.60;100140.41;4305545;33;35336;-81
2022/11/26 04:52:24;;;;;;;3.62;3.35;;;;;;;3.79;89.71;100136.00;4305554;33;33664;-81
2022/11/26 04:54:52;;;;;;;3.28;3.00;;;;;;;3.37;92.30;100141.59;4305665;33;33881;-72
2022/11/26 04:57:20;;;;;;;1.05;1.05;;;;;;;3.82;91.51;100143.84;4305445;33;35408;-80
2022/11/26 04:59:48;;;;;;;3.42;2.22;;;;;;;3.55;92.74;100139.63;4305579;33;35042;-71
2022/11/26 05:02:16;;;;;;;0.98;0.98;;;;;;;4.07;91.46;100153.13;4304381;33;33498;-81
2022/11/26 05:04:44;;;;;;;0.80;0.80;;;;;;;3.67;91.89;100153.69;4305386;33;34583;-81
2022/11/26 05:07:11;;;;;;;2.28;1.70;;;;;;;4.26;89.81;100161.41;4305424;33;35136;-81
2022/11/26 05:09:40;;;;;;;3.12;2.55;;;;;;;4.22;89.52;100160.44;4304302;33;35204;-79
2022/11/26 05:12:08;;;;;;;1.70;1.60;;;;;;;3.64;92.19;100164.78;4305445;33;34249;-72
2022/11/26 05:14:36;;;;;;;1.62;1.52;;;;;;;3.38;95.18;100176.84;4305451;33;33909;-81
2022/11/26 05:17:04;;;;;;;2.87;2.28;;;;;;;3.77;93.04;100166.88;4305455;33;34926;-81
2022/11/26 05:19:33;;;;;;;2.25;2.05;;;;;;;4.29;90.17;100167.53;4304283;33;34424;-81
2022/11/26 05:22:00;;;;;;;2.20;2.00;;;;;;;4.42;88.75;100165.28;4305358;33;33413;-81
2022/11/26 05:24:29;;;;;;;1.55;1.35;;;;;;;4.19;90.70;100165.50;4305154;33;33943;-81
2022/11/26 05:26:57;;;;;;;2.58;2.37;;;;;;;3.85;90.80;100163.66;4305279;33;34931;-81
2022/11/26 05:29:25;;;;;;;1.20;1.20;;;;;;;4.06;91.07;100176.28;4304218;33;34326;-81
2022/11/26 05:31:53;;;;;;;3.10;2.90;;;;;;;4.14;91.75;100174.81;4305299;33;33423;-80
2022/11/26 05:34:21;;;;;;;2.25;1.75;;;;;;;4.21;89.47;100174.16;4304125;33;34568;-81
2022/11/26 05:36:49;;;;;;;4.60;2.22;;;;;;;4.60;87.20;100177.81;4305401;33;35830;-76
2022/11/26 05:39:17;;;;;;;2.03;1.92;;;;;;;4.00;91.11;100179.56;4305176;33;35384;-81
2022/11/26 05:41:45;;;;;;;3.25;2.20;;;;;;;4.12;89.71;100184.22;4305354;33;33634;-80
2022/11/26 05:44:13;;;;;;;2.45;2.25;;;;;;;3.96;90.39;100186.34;4305278;33;34730;-81
2022/11/26 05:46:41;;;;;;;1.00;1.00;;;;;;;3.40;93.48;100188.03;4292062;33;34921;-80
2022/11/26 05:49:09;;;;;;;3.20;2.92;;;;;;;3.47;94.21;100197.72;4305252;33;34679;-76
2022/11/26 05:51:37;;;;;;;1.52;1.27;;;;;;;4.10;91.39;100194.47;4305249;33;33529;-81
2022/11/26 05:54:06;;;;;;;1.33;1.23;;;;;;;4.13;90.13;100202.31;4305133;33;34003;-81
2022/11/26 05:56:34;;;;;;;1.37;1.27;;;;;;;3.92;90.43;100207.69;4305213;33;35047;-81
2022/11/26 05:59:02;;;;;;;5.75;2.00;;;;;;;4.11;90.31;100205.66;4305127;33;34445;-81
2022/11/26 06:01:30;;;;;;;3.47;3.20;;;;;;;3.77;90.73;100208.09;4305215;33;33413;-80
2022/11/26 06:03:58;;;;;;;1.90;1.80;;;;;;;3.50;94.17;100213.25;4305042;33;34008;-81
2022/11/26 06:06:26;;;;;;;2.25;2.15;;;;;;;3.48;94.75;100212.34;4304942;33;35130;-77
2022/11/26 06:08:54;;;;;;;2.45;2.35;;;;;;;3.48;94.27;100214.06;4305105;33;34553;-80
2022/11/26 06:11:22;;;;;;;2.45;2.25;;;;;;;3.77;94.20;100208.09;4305078;33;34378;-78
2022/11/26 06:13:50;;;;;;;1.55;1.48;;;;;;;4.19;91.41;100206.75;4305015;33;34844;-74
2022/11/26 06:16:18;;;;;;;2.62;2.42;;;;;;;4.34;89.64;100222.69;4305062;33;35918;-82
2022/11/26 06:18:46;;;;;;;3.90;2.25;;;;;;;4.28;89.69;100222.47;4305328;33;35323;-80
2022/11/26 06:21:14;;;;;;;4.00;2.33;;;;;;;4.34;88.77;100226.94;4305607;33;33308;-80
2022/11/26 06:23:42;;;;;;;6.32;4.78;;;;;;;4.37;88.73;100233.06;4304937;33;34027;-79
2022/11/26 06:26:19;;;;;;;1.95;1.85;;;;;;;3.69;91.49;100229.28;4305004;33;35955;-75
2022/11/26 06:28:47;;;;;;;0.75;0.70;;;;;;;4.15;90.52;100229.00;4304836;33;34729;-78
2022/11/26 06:31:15;;;;;;;5.18;3.03;;;;;;;4.41;88.78;100226.28;4304875;33;34624;-76
2022/11/26 06:33:43;;;;;;;1.95;1.85;;;;;;;4.05;90.54;100231.25;4304804;33;34735;-80
2022/11/26 06:36:11;;;;;;;2.05;1.85;;;;;;;4.29;90.14;100233.66;4304416;33;35402;-71
2022/11/26 06:38:39;;;;;;;1.55;1.20;;;;;;;4.47;88.70;100235.91;4304874;33;35248;-77
2022/11/26 06:41:07;;;;;;;2.85;1.83;;;;;;;4.53;88.08;100234.34;4304983;33;34251;-80
2022/11/26 06:43:36;;;;;;;0.70;0.70;;;;;;;4.82;86.79;100230.81;4304998;33;33793;-80
2022/11/26 06:46:06;;;;;;;1.73;1.60;;;;;;;4.75;86.35;100246.16;4304789;33;35066;-71
2022/11/26 06:48:36;;;;;;;4.93;4.53;;;;;;;4.79;86.84;100235.94;4303759;33;34312;-80
2022/11/26 06:51:06;;;;;;;1.25;1.15;;;;;;;4.61;86.75;100237.16;4304852;33;34168;-79
2022/11/26 06:53:34;;;;;;;6.57;3.30;;;;;;;4.03;91.31;100238.06;4291805;33;34745;-80
2022/11/26 06:56:09;;;;;;;1.85;1.75;;;;;;;4.13;91.51;100245.22;4304715;33;35800;-72
2022/11/26 06:58:45;;;;;;;4.30;3.28;;;;;;;4.45;89.31;100253.91;4304820;33;35354;-79
2022/11/26 07:01:16;;;;;;;0.70;0.70;;;;;;;4.88;88.38;100255.09;4304780;33;34540;-80
2022/11/26 07:03:45;;;;;;;3.70;2.62;;;;;;;4.55;86.66;100261.09;4304831;33;34709;-79
2022/11/26 07:06:20;;;;;;;1.17;1.17;;;;;;;3.62;93.16;100259.16;4291666;33;35928;-79
2022/11/26 07:08:49;;;;;;;2.78;1.98;;;;;;;4.55;88.00;100261.09;4304807;33;35260;-79
2022/11/26 07:11:17;;;;;;;1.80;1.70;;;;;;;4.94;85.86;100262.12;4304726;33;34181;-79
2022/11/26 07:13:45;;;;;;;2.28;2.10;;;;;;;5.28;83.57;100265.62;4304729;33;33896;-80
2022/11/26 07:16:13;;;;;;;1.60;1.50;;;;;;;4.72;87.10;100266.72;4304715;33;35090;-80
2022/11/26 07:18:41;;;;;;;1.37;1.33;;;;;;;4.65;87.43;100267.37;4304654;33;35342;-71
2022/11/26 07:21:10;;;;;;;4.72;3.33;;;;;;;4.09;91.31;100272.59;4304642;33;34546;-80
2022/11/26 07:23:39;;;;;;;3.17;2.08;;;;;;;4.65;90.65;100267.37;4304437;33;33948;-80
2022/11/26 07:26:08;;;;;;;2.53;2.35;;;;;;;4.10;91.76;100276.09;4304562;33;35988;-80
2022/11/26 07:28:36;;;;;;;11.10;6.07;;;;;;;4.61;91.29;100275.88;4304661;33;35145;-80
2022/11/26 07:31:09;;;;;;;4.32;3.62;;;;;;;4.29;93.39;100286.12;4304567;33;33548;-80
2022/11/26 07:33:44;;;;;;;1.45;1.35;;;;;;;4.28;94.17;100275.75;4304355;33;34807;-80
2022/11/26 07:36:18;;;;;;;2.65;2.45;;;;;;;5.06;89.32;100274.50;4304366;33;34902;-80
2022/11/26 07:38:46;;;;;;;3.12;1.85;;;;;;;5.19;89.74;100281.75;4291489;33;34377;-82
2022/11/26 07:41:17;;;;;;;3.37;2.42;;;;;;;5.42;88.09;100287.50;4304458;33;34334;-81
2022/11/26 07:43:45;;;;;;;9.32;6.70;;;;;;;5.59;88.17;100285.31;4303215;33;34734;-80
2022/11/26 07:46:16;;;;;;;10.90;6.68;;;;;;;5.56;88.22;100289.53;4291610;33;35820;-82
2022/11/26 07:48:45;;;;;;;6.50;3.62;;;;;;;4.69;89.99;100284.69;4304337;33;35268;-81
2022/11/26 07:51:19;;;;;;;2.55;2.35;;;;;;;5.28;88.18;100289.72;4300127;33;33470;-79
2022/11/26 07:53:50;;;;;;;7.78;5.00;;;;;;;5.38;87.96;100285.66;4281745;33;33877;-83
2022/11/26 07:56:18;;;;;;;2.85;2.67;;;;;;;5.16;89.45;100280.78;4298134;33;35082;-75
2022/11/26 07:58:46;;;;;;;7.10;3.95;;;;;;;5.97;86.09;100284.53;4303656;33;34580;-81
2022/11/26 08:01:20;;;;;;;21.77;6.82;;;;;;;5.25;91.13;100278.44;4317211;33;34279;-72
2022/11/26 08:03:50;;;;;;;2.20;2.08;;;;;;;5.19;91.02;100280.84;4317640;33;34776;-82
2022/11/26 08:06:23;;;;;;;7.05;4.82;;;;;;;5.84;89.26;100297.16;4305436;33;35900;-81
2022/11/26 08:08:51;;;;;;;3.10;2.85;;;;;;;6.09;87.98;100297.75;4305641;33;34131;-77
2022/11/26 08:11:22;;;;;;;2.10;2.00;;;;;;;6.06;86.37;100302.84;4316938;33;34521;-78
2022/11/26 08:13:55;;;;;;;2.55;2.35;;;;;;;5.85;88.88;100308.34;4303182;33;33241;-82
2022/11/26 08:16:23;;;;;;;12.05;10.07;;;;;;;5.73;89.68;100318.37;4290822;33;35988;-78
2022/11/26 08:18:57;;;;;;;8.98;7.97;;;;;;;6.26;86.04;100317.09;4303949;33;34526;-81
2022/11/26 08:21:26;;;;;;;8.82;7.55;;;;;;;5.29;91.22;100324.16;4303989;33;33751;-81
2022/11/26 08:23:54;;;;;;;10.18;8.60;;;;;;;5.47;91.18;100324.66;4303857;33;33884;-78
2022/11/26 08:26:24;;;;;;;5.22;4.70;;;;;;;5.74;90.31;100331.34;4302542;33;35013;-82
2022/11/26 08:29:06;;;;;;;1.75;1.65;;;;;;;5.89;88.59;100336.00;4298684;33;169022;-82
2022/11/26 08:31:35;;;;;;;2.75;1.95;;;;;;;5.75;87.52;100335.66;4303757;33;34226;-82
2022/11/26 08:34:12;;;;;;;2.05;1.77;;;;;;;5.94;86.05;100336.13;4303532;33;33896;-82
2022/11/26 08:36:40;;;;;;;1.90;1.80;;;;;;;5.80;87.72;100336.66;4303767;33;35923;-82
2022/11/26 08:39:11;;;;;;;2.90;2.67;;;;;;;5.33;90.32;100333.75;4290427;33;34593;-72
2022/11/26 08:41:39;;;;;;;1.60;1.55;;;;;;;5.84;89.34;100333.31;4303625;33;33322;-72
2022/11/26 08:44:07;;;;;;;3.72;3.45;;;;;;;5.75;89.26;100335.66;4303536;33;34833;-82
2022/11/26 08:46:37;;;;;;;3.15;2.85;;;;;;;6.31;86.41;100344.78;4303549;33;35176;-81
2022/11/26 08:49:07;;;;;;;3.50;2.75;;;;;;;6.61;84.57;100336.81;4303533;33;35306;-77
2022/11/26 08:51:35;;;;;;;2.28;2.08;;;;;;;6.32;86.23;100346.50;4302414;33;33032;-83
2022/11/26 08:54:03;;;;;;;2.80;2.30;;;;;;;6.22;87.05;100346.31;4290556;33;33371;-80
2022/11/26 08:56:32;;;;;;;1.30;1.30;;;;;;;6.00;87.39;100349.22;4303432;33;35138;-82
2022/11/26 08:59:01;;;;;;;2.28;2.10;;;;;;;6.34;87.88;100339.69;4304271;33;35323;-86
2022/11/26 09:01:33;;;;;;;5.53;2.65;;;;;;;6.71;84.94;100338.75;4305646;33;33639;-82
2022/11/26 09:04:03;;;;;;;4.25;3.78;;;;;;;5.76;89.54;100345.19;4292937;33;33878;-82
2022/11/26 09:06:32;;;;;;;4.03;3.72;;;;;;;6.08;88.61;100347.69;4292477;33;35000;-81
2022/11/26 09:09:12;;;;;;;1.70;1.60;;;;;;;6.12;88.80;100353.81;4292536;33;35337;-82
2022/11/26 09:11:56;;;;;;;3.10;2.87;;;;;;;6.57;86.55;100346.22;4304582;33;34315;-81
2022/11/26 09:14:26;;;;;;;3.58;3.28;;;;;;;5.76;88.98;100345.19;4304259;33;33901;-81
2022/11/26 09:16:56;;;;;;;5.18;4.65;;;;;;;5.86;89.22;100342.00;4305382;33;36009;-80
2022/11/26 09:19:24;;;;;;;2.42;2.22;;;;;;;5.78;91.04;100348.66;4304310;33;34290;-81
2022/11/26 09:21:52;;;;;;;2.53;2.12;;;;;;;6.36;87.89;100349.22;4305343;33;33462;-79
2022/11/26 09:24:21;;;;;;;2.95;2.75;;;;;;;6.36;88.17;100361.28;4305300;33;34028;-81
2022/11/26 09:26:49;;;;;;;3.20;2.33;;;;;;;6.37;87.67;100360.44;4292339;33;35057;-77
2022/11/26 09:29:20;;;;;;;6.22;3.72;;;;;;;6.30;90.04;100358.53;4305008;33;35424;-77
2022/11/26 09:31:49;;;;;;;4.00;3.70;;;;;;;6.49;88.68;100365.87;4305358;33;34385;-80
2022/11/26 09:34:37;;;;;;;8.75;6.10;;;;;;;6.20;91.31;100362.63;4305072;33;34708;-82
2022/11/26 09:37:06;;;;;;;9.13;6.15;;;;;;;6.15;92.15;100369.41;4304184;33;34926;-81
2022/11/26 09:39:34;;;;;;;5.85;5.35;;;;;;;6.74;89.14;100364.72;4305084;33;34464;-77
2022/11/26 09:42:25;;;;;;;6.57;4.97;;;;;;;6.26;90.35;100371.44;4305217;33;34352;-78
2022/11/26 09:45:17;;;;;;;2.47;2.35;;;;;;;6.90;86.89;100365.91;4301309;33;34128;-81
2022/11/26 09:47:47;;;;;;;3.95;2.58;;;;;;;6.56;86.36;100362.59;4304211;33;35990;-77
2022/11/26 09:50:37;;;;;;;1.67;1.58;;;;;;;7.18;83.72;100361.25;4304175;33;33698;-81
2022/11/26 09:53:20;;;;;;;6.57;2.80;;;;;;;7.07;84.99;100365.38;4305207;33;34342;-81
2022/11/26 09:55:51;;;;;;;2.62;2.42;;;;;;;6.49;88.17;100359.84;4292496;33;33914;-82
2022/11/26 09:58:37;;;;;;;4.53;3.17;;;;;;;6.68;89.13;100358.53;4305049;33;35771;-78
2022/11/26 10:01:06;;;;;;;2.08;1.98;;;;;;;6.69;89.39;100357.66;4305147;33;34366;-81
2022/11/26 10:03:37;;;;;;;1.77;1.67;;;;;;;6.42;91.23;100366.56;4303980;33;33568;-79
2022/11/26 10:06:08;;;;;;;3.30;3.05;;;;;;;7.27;87.41;100356.28;4304048;33;33791;-81
2022/11/26 10:09:15;;;;;;;1.83;1.67;;;;;;;7.22;87.55;100358.78;4305087;33;35778;-72
2022/11/26 10:11:48;;;;;;;2.62;2.42;;;;;;;7.18;89.23;100362.16;4304356;33;34462;-77
2022/11/26 10:14:32;;;;;;;4.10;1.45;;;;;;;7.09;89.58;100374.03;4304113;33;33370;-81
2022/11/26 10:17:15;;;;;;;1.48;1.37;;;;;;;7.43;88.28;100369.50;4305030;33;34029;-78
2022/11/26 10:19:49;;;;;;;1.65;1.42;;;;;;;7.19;88.44;100371.66;4305017;33;35052;-72
2022/11/26 10:22:27;;;;;;;5.35;3.53;;;;;;;7.33;87.86;100366.75;4305066;33;35254;-80
2022/11/26 10:24:57;;;;;;;1.35;1.25;;;;;;;7.47;86.43;100376.50;4304994;33;33970;-80
2022/11/26 10:27:29;;;;;;;2.55;2.35;;;;;;;7.33;86.50;100376.25;4303706;33;33950;-73
2022/11/26 10:30:00;;;;;;;1.20;1.10;;;;;;;7.36;85.17;100387.53;4291902;33;34941;-80
2022/11/26 10:32:39;;;;;;;1.37;1.35;;;;;;;7.48;86.15;100383.41;4305037;33;35230;-80
2022/11/26 10:35:14;;;;;;;1.33;1.25;;;;;;;7.48;84.99;100378.25;4303759;33;33576;-80
2022/11/26 10:37:42;;;;;;;2.42;1.70;;;;;;;7.45;85.33;100379.06;4305200;33;34596;-81
2022/11/26 10:40:24;;;;;;;1.35;1.10;;;;;;;7.51;83.24;100379.16;4304735;33;34871;-80
2022/11/26 10:43:07;;;;;;;3.25;2.95;;;;;;;7.49;84.38;100373.09;4304928;33;34602;-74
2022/11/26 10:45:41;;;;;;;3.25;2.60;;;;;;;7.92;82.37;100381.62;4304858;33;33656;-80
2022/11/26 10:48:29;;;;;;;6.87;6.22;;;;;;;7.58;82.32;100374.97;4304803;33;34719;-81
2022/11/26 10:51:27;;;;;;;1.23;1.08;;;;;;;7.18;84.98;100380.28;4291910;33;35943;-82
2022/11/26 10:54:02;;;;;;;;;;;;;;;7.13;87.27;100386.19;4305157;33;34347;-84
2022/11/26 10:56:33;;;;;;;57.78;29.83;;;;;;;7.06;87.84;100377.47;4303727;33;34246;-85
2022/11/26 10:59:16;;;;;;;7.37;6.60;;;;;;;6.82;89.02;100380.41;4304700;33;34832;-85
2022/11/26 11:01:44;;;;;;;2.97;2.70;;;;;;;7.00;88.98;100379.91;4304681;33;35029;-85
2022/11/26 11:04:23;;;;;;;3.85;3.47;;;;;;;6.98;90.21;100382.47;4291797;33;34509;-85
2022/11/26 11:06:52;;;;;;;3.83;3.53;;;;;;;7.36;88.24;100384.94;4304785;33;33341;-73
2022/11/26 11:09:33;;;;;;;3.17;2.95;;;;;;;7.05;89.78;100380.00;4304814;33;34075;-85
2022/11/26 11:12:38;;;;;;;2.53;2.33;;;;;;;7.17;88.65;100381.12;4304621;33;35082;-86
2022/11/26 11:15:22;;;;;;;16.20;10.48;;;;;;;7.16;89.62;100375.91;4295912;33;35224;-86
2022/11/26 11:18:03;;;;;;;36.78;26.87;;;;;;;7.28;87.80;100373.56;4304706;33;33551;-87
2022/11/26 11:20:34;;;;;;;14.57;12.90;;;;;;;7.15;88.90;100369.88;4304673;33;33947;-87
2022/11/26 11:23:10;;;;;;;7.43;6.72;;;;;;;7.59;86.45;100367.22;4304353;33;35194;-85
2022/11/26 11:25:41;;;;;;;3.80;3.50;;;;;;;7.60;87.23;100368.09;4304636;33;34478;-76
2022/11/26 11:28:12;;;;;;;4.65;4.25;;;;;;;7.57;88.35;100368.03;4304588;33;33368;-88
2022/11/26 11:30:41;;;;;;;2.00;1.90;;;;;;;7.37;89.55;100365.94;4304539;33;33971;-87
2022/11/26 11:33:19;;;;;;;7.43;3.67;;;;;;;7.40;88.99;100363.41;4304519;33;36002;-86
2022/11/26 11:36:12;;;;;;;7.00;6.03;;;;;;;7.48;89.83;100365.28;4304462;33;35179;-86
2022/11/26 11:38:57;;;;;;;5.75;5.15;;;;;;;7.93;85.84;100366.94;4304414;33;34272;-72
2022/11/26 11:41:32;;;;;;;4.25;3.95;;;;;;;8.00;84.60;100373.97;4304501;33;33918;-73
2022/11/26 11:44:23;;;;;;;6.53;5.93;;;;;;;7.57;87.89;100373.22;4303325;33;35150;-87
2022/11/26 11:47:03;;;;;;;4.53;4.12;;;;;;;7.34;89.43;100365.91;4304456;33;35300;-76
2022/11/26 11:50:00;;;;;;;3.40;3.10;;;;;;;7.69;89.83;100368.25;4304404;33;33246;-86
2022/11/26 11:52:56;;;;;;;2.17;1.48;;;;;;;7.61;88.20;100369.84;4304342;33;33860;-86
2022/11/26 11:55:35;;;;;;;3.60;3.30;;;;;;;7.27;89.89;100366.66;4304210;33;34932;-86
2022/11/26 11:58:06;;;;;;;3.17;2.97;;;;;;;7.91;88.13;100353.06;4303148;33;34610;-86